Weather at Caransebeş Airport

Public forecast

Using degrees Celsius for public forecast. Weather courtesy of forecast.io.

Closest aviation weather report (METAR) to Caransebeş Airport

Closest report is Vršac Airfield, 43.1 nm (79.8 km) WSW.

2024/05/28 04:00 (retrieved 18 minutes ago)

LYVR 280400Z AUTO 05005KT 350V080 CAVOK 15/09 Q1015

Closest aviation forecast (TAF) to Caransebeş Airport

Forecast is more than 6 hours old.

Closest forecast is Kukës International Airport, 218.2 nm (404.2 km) SSW.

2024/05/27 18:00 Ammendment (retrieved 10 hours ago)

TAF AMD LAKU 271900Z 2718/2818 CNL